Time;durP1;ratioP1;P1;durP2;ratioP2;P2;SDS_P1;SDS_P2;PMS_P1;PMS_P2;Temp;Humidity;BMP_temperature;BMP_pressure;BME280_temperature;BME280_humidity;BME280_pressure;Samples;Min_cycle;Max_cycle;Signal;HPM_P1;HPM_P2
2022/08/01 00:00:13;;;;;;;6.78;3.50;;;21.50;99.90;;;;;;5038618;28;20034;-86
2022/08/01 00:02:40;;;;;;;6.18;3.60;;;21.40;99.90;;;;;;5018008;28;20049;-86
2022/08/01 00:05:07;;;;;;;5.85;3.50;;;21.50;99.90;;;;;;5013911;28;20030;-86
2022/08/01 00:07:34;;;;;;;4.43;3.47;;;21.50;99.90;;;;;;5005885;28;20030;-86
2022/08/01 00:10:00;;;;;;;4.97;3.53;;;21.40;99.90;;;;;;5023756;28;20038;-87
2022/08/01 00:12:26;;;;;;;6.72;3.78;;;21.30;99.90;;;;;;5026630;28;20034;-86
2022/08/01 00:14:52;;;;;;;4.70;3.80;;;21.30;99.90;;;;;;5022887;28;20072;-88
2022/08/01 00:17:18;;;;;;;11.38;4.38;;;21.20;99.90;;;;;;5026271;28;20569;-85
2022/08/01 00:19:44;;;;;;;6.80;3.97;;;21.10;99.90;;;;;;5026637;28;20631;-86
2022/08/01 00:22:09;;;;;;;6.15;4.35;;;21.20;99.90;;;;;;5022045;28;20061;-87
2022/08/01 00:24:35;;;;;;;7.03;4.03;;;21.10;99.90;;;;;;5022883;28;20030;-89
2022/08/01 00:27:01;;;;;;;7.03;4.25;;;21.10;99.90;;;;;;5023860;28;20014;-87
2022/08/01 00:29:27;;;;;;;5.75;4.32;;;21.10;99.90;;;;;;5023139;28;20425;-86
2022/08/01 00:31:52;;;;;;;5.80;4.07;;;21.10;99.90;;;;;;5025831;28;20033;-87
2022/08/01 00:34:18;;;;;;;5.47;3.70;;;21.00;99.90;;;;;;5026006;28;20037;-86
2022/08/01 00:36:44;;;;;;;7.45;4.22;;;21.00;99.90;;;;;;5026580;28;20038;-85
2022/08/01 00:39:10;;;;;;;5.72;3.88;;;21.00;99.90;;;;;;5006468;28;20037;-85
2022/08/01 00:41:36;;;;;;;5.00;3.60;;;21.00;99.90;;;;;;5025853;28;20098;-87
2022/08/01 00:44:04;;;;;;;5.35;4.07;;;21.10;99.90;;;;;;5025890;28;20108;-85
2022/08/01 00:46:30;;;;;;;4.95;3.35;;;21.20;99.90;;;;;;5025783;28;20037;-85
2022/08/01 00:48:57;;;;;;;6.82;3.30;;;21.20;99.90;;;;;;5026570;28;20168;-86
2022/08/01 00:51:24;;;;;;;4.50;3.80;;;21.30;99.90;;;;;;5029314;28;20037;-86
2022/08/01 00:53:51;;;;;;;5.05;3.63;;;21.30;99.90;;;;;;5034400;28;20480;-85
2022/08/01 00:56:18;;;;;;;5.18;3.30;;;21.30;99.90;;;;;;5036335;28;20102;-85
2022/08/01 00:58:44;;;;;;;6.10;3.85;;;21.40;99.90;;;;;;5035646;28;20080;-87
2022/08/01 01:01:10;;;;;;;6.68;3.67;;;21.40;99.90;;;;;;5035329;28;20045;-86
2022/08/01 01:03:35;;;;;;;6.20;3.88;;;21.50;99.90;;;;;;5036510;28;20057;-86
2022/08/01 01:06:08;;;;;;;4.60;3.72;;;21.50;99.90;;;;;;5038573;28;20081;-87
2022/08/01 01:08:48;;;;;;;5.20;3.58;;;21.50;99.90;;;;;;5038066;28;20029;-87
2022/08/01 01:11:22;;;;;;;4.65;3.90;;;21.50;99.90;;;;;;5038211;28;20034;-88
2022/08/01 01:13:55;;;;;;;5.63;4.03;;;21.60;99.90;;;;;;5038102;28;20014;-88
2022/08/01 01:16:22;;;;;;;6.65;4.25;;;21.60;99.90;;;;;;5038061;28;20041;-87
2022/08/01 01:19:00;;;;;;;5.47;3.70;;;21.60;99.90;;;;;;5037862;28;20033;-88
2022/08/01 01:21:31;;;;;;;4.60;3.78;;;21.60;99.90;;;;;;5037550;28;20033;-87
2022/08/01 01:24:10;;;;;;;6.28;3.90;;;21.60;99.90;;;;;;5038431;28;20089;-87
2022/08/01 01:26:53;;;;;;;7.10;3.88;;;21.50;99.90;;;;;;5038733;28;20041;-86
2022/08/01 01:29:46;;;;;;;6.50;3.88;;;21.50;99.90;;;;;;5034847;28;20034;-87
2022/08/01 01:32:33;;;;;;;5.90;3.78;;;21.50;99.90;;;;;;5029208;28;20046;-88
2022/08/01 01:35:06;;;;;;;4.70;3.75;;;21.40;99.90;;;;;;5022329;28;20021;-86
2022/08/01 01:37:34;;;;;;;7.07;3.78;;;21.40;99.90;;;;;;5022836;28;20014;-86
2022/08/01 01:40:02;;;;;;;7.53;4.07;;;21.40;99.90;;;;;;5021117;28;20056;-86
2022/08/01 01:42:30;;;;;;;7.10;3.90;;;21.30;99.90;;;;;;5023087;28;20037;-86
2022/08/01 01:44:58;;;;;;;4.03;3.63;;;21.40;99.90;;;;;;5027513;28;20058;-84
2022/08/01 01:47:25;;;;;;;8.35;4.20;;;21.30;99.90;;;;;;5028443;28;20401;-86
2022/08/01 01:49:53;;;;;;;4.57;3.70;;;21.30;99.90;;;;;;5028895;28;20520;-86
2022/08/01 01:52:20;;;;;;;7.65;3.60;;;21.40;99.90;;;;;;5033492;28;20041;-85
2022/08/01 01:54:49;;;;;;;8.20;3.75;;;21.40;99.90;;;;;;5017025;28;20014;-86
2022/08/01 01:57:16;;;;;;;4.88;4.28;;;21.40;99.90;;;;;;5036514;28;20034;-86
2022/08/01 01:59:43;;;;;;;5.90;4.32;;;21.50;99.90;;;;;;5040292;28;20049;-88
2022/08/01 02:02:11;;;;;;;5.70;3.72;;;21.50;99.90;;;;;;5041308;28;20105;-87
2022/08/01 02:04:43;;;;;;;7.30;3.90;;;21.50;99.90;;;;;;5041923;28;20006;-88
2022/08/01 02:07:13;;;;;;;5.78;4.00;;;21.50;99.90;;;;;;5041991;28;20044;-85
2022/08/01 02:09:41;;;;;;;14.80;4.13;;;21.50;99.90;;;;;;5041389;28;20030;-87
2022/08/01 02:12:09;;;;;;;5.72;4.00;;;21.50;99.90;;;;;;5041010;28;20113;-86
2022/08/01 02:14:36;;;;;;;7.10;4.00;;;21.50;99.90;;;;;;5041019;28;20018;-89
2022/08/01 02:17:06;;;;;;;5.13;3.88;;;21.60;99.90;;;;;;5040988;28;20029;-88
2022/08/01 02:19:34;;;;;;;7.18;4.03;;;21.60;99.90;;;;;;5040954;28;20033;-85
2022/08/01 02:22:04;;;;;;;5.50;3.63;;;21.60;99.90;;;;;;5041339;28;20030;-90
2022/08/01 02:24:42;;;;;;;4.03;3.60;;;21.60;99.90;;;;;;5040730;28;20080;-88
2022/08/01 02:27:12;;;;;;;6.80;3.70;;;21.70;99.90;;;;;;5040923;28;20026;-86
2022/08/01 02:29:52;;;;;;;7.85;4.25;;;21.60;99.90;;;;;;5038712;28;20038;-85
2022/08/01 02:32:30;;;;;;;7.45;4.05;;;21.60;99.90;;;;;;5026185;28;20113;-86
2022/08/01 02:34:58;;;;;;;5.03;3.85;;;21.60;99.90;;;;;;5024072;28;20478;-85
2022/08/01 02:37:28;;;;;;;9.13;3.95;;;21.60;99.90;;;;;;5024963;28;20029;-86
2022/08/01 02:39:55;;;;;;;4.85;3.28;;;21.60;99.90;;;;;;5025467;28;20030;-85
2022/08/01 02:42:24;;;;;;;5.78;3.80;;;21.60;99.90;;;;;;5026600;28;20032;-86
2022/08/01 02:44:51;;;;;;;4.65;3.45;;;21.60;99.90;;;;;;5027052;28;20033;-85
2022/08/01 02:47:20;;;;;;;8.95;3.40;;;21.60;99.90;;;;;;5027264;28;20022;-86
2022/08/01 02:49:48;;;;;;;7.95;3.60;;;21.70;99.90;;;;;;5027351;28;20041;-88
2022/08/01 02:52:17;;;;;;;8.38;3.97;;;21.70;99.90;;;;;;5008471;28;20057;-86
2022/08/01 02:54:49;;;;;;;7.43;4.00;;;21.70;99.90;;;;;;5025114;28;20501;-87
2022/08/01 02:57:17;;;;;;;5.15;3.53;;;21.80;99.90;;;;;;5024192;28;20030;-86
2022/08/01 02:59:45;;;;;;;4.95;3.40;;;21.80;99.90;;;;;;5024123;28;20080;-85
2022/08/01 03:02:12;;;;;;;5.03;3.60;;;21.80;99.90;;;;;;5024973;28;20026;-86
2022/08/01 03:04:40;;;;;;;3.75;3.40;;;21.70;99.90;;;;;;5026899;28;20025;-85
2022/08/01 03:07:09;;;;;;;7.60;3.67;;;21.80;99.90;;;;;;5023325;28;20022;-85
2022/08/01 03:09:41;;;;;;;9.30;3.47;;;21.80;99.90;;;;;;5022902;28;20072;-86
2022/08/01 03:12:14;;;;;;;6.18;3.60;;;21.80;99.90;;;;;;5035108;28;20028;-87
2022/08/01 03:14:42;;;;;;;9.20;3.70;;;21.80;99.90;;;;;;5040387;28;20041;-87
2022/08/01 03:17:09;;;;;;;5.05;3.88;;;21.70;99.90;;;;;;5040399;28;20013;-87
2022/08/01 03:19:37;;;;;;;5.05;3.38;;;21.70;99.90;;;;;;5040326;28;20024;-86
2022/08/01 03:22:07;;;;;;;5.55;3.53;;;21.70;99.90;;;;;;5023176;28;20033;-87
2022/08/01 03:24:34;;;;;;;4.85;3.58;;;21.70;99.90;;;;;;5039951;28;20026;-86
2022/08/01 03:27:01;;;;;;;4.30;3.45;;;21.70;99.90;;;;;;5023632;28;20081;-87
2022/08/01 03:29:29;;;;;;;5.45;3.55;;;21.80;99.90;;;;;;5040626;28;20018;-85
2022/08/01 03:31:57;;;;;;;6.25;4.00;;;21.80;99.90;;;;;;5040184;28;20017;-86
2022/08/01 03:34:23;;;;;;;5.57;3.33;;;21.80;99.90;;;;;;5039772;28;20033;-86
2022/08/01 03:37:01;;;;;;;3.83;3.28;;;21.80;99.90;;;;;;5023323;28;20021;-86
2022/08/01 03:39:33;;;;;;;3.92;3.50;;;21.80;99.90;;;;;;5040376;28;20014;-84
2022/08/01 03:42:04;;;;;;;9.68;4.32;;;21.90;99.90;;;;;;5038014;28;20108;-86
2022/08/01 03:44:32;;;;;;;6.30;4.45;;;21.90;99.90;;;;;;5032825;28;20057;-86
2022/08/01 03:47:02;;;;;;;6.03;3.88;;;21.90;99.90;;;;;;5035873;28;20022;-87
2022/08/01 03:49:34;;;;;;;10.63;4.22;;;21.90;99.90;;;;;;5037848;28;20095;-86
2022/08/01 03:52:07;;;;;;;9.07;4.22;;;21.90;99.90;;;;;;5037457;28;20010;-85
2022/08/01 03:54:37;;;;;;;8.93;4.22;;;22.10;99.90;;;;;;5035355;28;20065;-85
2022/08/01 03:57:05;;;;;;;5.35;4.10;;;22.20;99.90;;;;;;5030433;28;20056;-85
2022/08/01 03:59:34;;;;;;;6.57;4.20;;;22.20;99.90;;;;;;5028697;28;20021;-84
2022/08/01 04:02:01;;;;;;;6.95;4.18;;;22.10;99.90;;;;;;5020825;28;20074;-89
2022/08/01 04:04:28;;;;;;;9.02;4.15;;;22.00;99.90;;;;;;5023187;28;20135;-87
2022/08/01 04:06:54;;;;;;;6.28;4.20;;;22.00;99.90;;;;;;5039211;28;20050;-89
2022/08/01 04:09:24;;;;;;;6.97;4.07;;;22.00;99.90;;;;;;5039207;28;20025;-90
2022/08/01 04:11:50;;;;;;;5.60;3.85;;;21.90;99.90;;;;;;5022759;28;20022;-88
2022/08/01 04:14:16;;;;;;;5.55;4.20;;;21.80;99.90;;;;;;5039321;28;20053;-89
2022/08/01 04:16:42;;;;;;;6.90;4.30;;;21.80;99.90;;;;;;5040147;28;20018;-88
2022/08/01 04:19:08;;;;;;;7.45;4.22;;;21.80;99.90;;;;;;5023138;28;20037;-86
2022/08/01 04:21:35;;;;;;;5.40;3.95;;;21.70;99.90;;;;;;5038833;28;20049;-86
2022/08/01 04:24:10;;;;;;;4.88;4.10;;;21.70;99.90;;;;;;5033746;23;20038;-77
2022/08/01 04:26:36;;;;;;;;;;;21.70;99.90;;;;;;5015144;28;20030;-76
2022/08/01 04:29:04;;;;;;;5.82;3.88;;;21.80;99.90;;;;;;5013515;28;19906;-75
2022/08/01 04:31:32;;;;;;;8.48;3.90;;;21.70;99.90;;;;;;5014720;28;20095;-76
2022/08/01 04:34:01;;;;;;;5.95;4.28;;;21.80;99.90;;;;;;5028366;28;20616;-76
2022/08/01 04:36:30;;;;;;;6.22;4.57;;;21.70;99.90;;;;;;5036411;28;20037;-75
2022/08/01 04:39:00;;;;;;;7.80;4.05;;;21.70;99.90;;;;;;5035486;28;20048;-76
2022/08/01 04:41:26;;;;;;;6.25;4.10;;;21.60;99.90;;;;;;5034535;28;20033;-76
2022/08/01 04:43:54;;;;;;;8.10;4.32;;;21.70;99.90;;;;;;5033901;28;20043;-76
2022/08/01 04:46:21;;;;;;;4.85;3.92;;;21.80;99.90;;;;;;5033705;28;20025;-75
2022/08/01 04:48:48;;;;;;;5.05;3.53;;;21.80;99.90;;;;;;5033471;28;20041;-76
2022/08/01 04:51:15;;;;;;;5.53;3.53;;;22.00;99.90;;;;;;5036834;28;20034;-77
2022/08/01 04:53:42;;;;;;;7.85;4.25;;;22.20;99.90;;;;;;5037001;28;20088;-77
2022/08/01 04:56:08;;;;;;;5.05;3.92;;;22.30;99.90;;;;;;5041019;28;20493;-76
2022/08/01 04:58:34;;;;;;;4.18;2.97;;;22.40;99.90;;;;;;5035883;28;20044;-76
2022/08/01 05:01:00;;;;;;;8.18;3.22;;;22.50;99.90;;;;;;5037156;28;20034;-77
2022/08/01 05:03:26;;;;;;;6.00;3.13;;;22.70;99.90;;;;;;5037378;28;20102;-79
2022/08/01 05:05:52;;;;;;;5.15;3.40;;;22.70;99.90;;;;;;5026582;28;20600;-78
2022/08/01 05:08:17;;;;;;;8.55;3.10;;;22.80;99.90;;;;;;5029150;28;20413;-77
2022/08/01 05:10:43;;;;;;;5.10;2.80;;;22.80;99.90;;;;;;5034013;28;20540;-78
2022/08/01 05:13:09;;;;;;;13.27;3.15;;;22.80;99.90;;;;;;5034555;28;20045;-79
2022/08/01 05:15:38;;;;;;;6.18;2.92;;;22.80;99.90;;;;;;5034895;28;20045;-78
2022/08/01 05:18:05;;;;;;;5.65;2.60;;;22.80;99.90;;;;;;5029047;28;20165;-79
2022/08/01 05:20:31;;;;;;;5.68;2.60;;;22.80;99.90;;;;;;5027386;28;20022;-80
2022/08/01 05:22:57;;;;;;;3.25;2.50;;;22.70;99.90;;;;;;5062075;28;20083;-78
2022/08/01 05:25:23;;;;;;;4.65;3.15;;;22.80;99.90;;;;;;5027283;28;20094;-78
2022/08/01 05:27:49;;;;;;;4.32;3.03;;;22.80;99.90;;;;;;5029294;28;20449;-78
2022/08/01 05:30:15;;;;;;;3.90;3.00;;;22.90;99.90;;;;;;5036341;28;20049;-79
2022/08/01 05:32:41;;;;;;;8.40;3.03;;;23.00;99.90;;;;;;5035484;28;20037;-79
2022/08/01 05:35:08;;;;;;;5.88;3.13;;;23.00;99.90;;;;;;5034639;28;20029;-77
2022/08/01 05:37:34;;;;;;;6.28;3.88;;;23.10;99.90;;;;;;5051132;28;20029;-78
2022/08/01 05:40:00;;;;;;;4.97;3.53;;;23.10;99.90;;;;;;5034188;28;20036;-79
2022/08/01 05:42:26;;;;;;;6.63;3.72;;;23.10;99.90;;;;;;5040110;28;20397;-77
2022/08/01 05:44:52;;;;;;;8.30;4.00;;;23.20;99.90;;;;;;5037001;28;20026;-77
2022/08/01 05:47:18;;;;;;;7.78;4.03;;;23.40;99.90;;;;;;5038850;28;20022;-79
2022/08/01 05:49:45;;;;;;;8.13;3.42;;;23.40;99.90;;;;;;5039671;28;20029;-77
2022/08/01 05:52:11;;;;;;;6.63;3.17;;;23.50;99.90;;;;;;5039453;28;20096;-79
2022/08/01 05:54:37;;;;;;;12.48;3.60;;;23.60;99.90;;;;;;5039255;28;20373;-78
2022/08/01 05:57:03;;;;;;;7.63;3.33;;;23.70;99.90;;;;;;5037620;28;20032;-79
2022/08/01 05:59:29;;;;;;;4.45;2.90;;;23.90;99.90;;;;;;5037388;28;20029;-76
2022/08/01 06:01:55;;;;;;;8.05;3.90;;;24.10;99.90;;;;;;5039939;28;20017;-77
2022/08/01 06:04:21;;;;;;;8.35;4.40;;;24.20;99.90;;;;;;5043343;28;20037;-79
2022/08/01 06:06:47;;;;;;;10.93;3.42;;;24.30;99.90;;;;;;5043393;28;20009;-78
2022/08/01 06:09:13;;;;;;;10.13;3.33;;;24.40;99.70;;;;;;5042109;28;20057;-78
2022/08/01 06:11:38;;;;;;;3.95;2.72;;;24.40;99.40;;;;;;5037293;28;20053;-80
2022/08/01 06:14:04;;;;;;;6.25;2.88;;;24.40;99.50;;;;;;5035674;28;20083;-78
2022/08/01 06:16:30;;;;;;;10.07;3.17;;;24.50;99.40;;;;;;5037807;28;20474;-77
2022/08/01 06:18:56;;;;;;;4.32;2.92;;;24.50;99.10;;;;;;5035949;28;20037;-77
2022/08/01 06:21:22;;;;;;;5.45;2.83;;;24.70;99.10;;;;;;5037113;28;20026;-78
2022/08/01 06:23:47;;;;;;;7.03;2.83;;;24.90;98.60;;;;;;5033448;28;20025;-79
2022/08/01 06:26:13;;;;;;;5.10;2.67;;;25.10;97.90;;;;;;5034215;28;20026;-79
2022/08/01 06:28:39;;;;;;;10.80;2.85;;;25.10;97.60;;;;;;5032192;28;20034;-77
2022/08/01 06:31:05;;;;;;;5.18;2.97;;;25.20;97.60;;;;;;5027292;28;20029;-78
2022/08/01 06:33:31;;;;;;;6.97;2.90;;;25.20;97.40;;;;;;5026151;28;20451;-78
2022/08/01 06:35:57;;;;;;;6.00;2.90;;;25.20;97.40;;;;;;5028454;28;20316;-79
2022/08/01 06:38:24;;;;;;;7.57;3.20;;;25.20;97.30;;;;;;5030289;28;20053;-78
2022/08/01 06:40:50;;;;;;;4.10;2.80;;;25.30;97.40;;;;;;5028753;28;20433;-79
2022/08/01 06:43:16;;;;;;;11.73;8.10;;;25.30;97.10;;;;;;5034272;28;20060;-79
2022/08/01 06:45:42;;;;;;;7.65;5.32;;;25.30;97.10;;;;;;5033387;28;20021;-78
2022/08/01 06:48:08;;;;;;;6.45;2.88;;;25.40;97.20;;;;;;5028641;28;20041;-79
2022/08/01 06:50:35;;;;;;;4.88;3.20;;;25.40;97.20;;;;;;5034210;28;20009;-78
2022/08/01 06:53:01;;;;;;;5.85;2.80;;;25.40;97.10;;;;;;5053713;28;20076;-77
2022/08/01 06:55:27;;;;;;;8.93;2.83;;;25.60;97.10;;;;;;5036949;28;20018;-76
2022/08/01 06:57:53;;;;;;;12.38;3.40;;;25.60;96.70;;;;;;5038234;28;20481;-78
2022/08/01 07:00:22;;;;;;;8.27;3.33;;;25.70;96.80;;;;;;5036571;28;20029;-79
2022/08/01 07:02:59;;;;;;;6.60;3.15;;;26.00;96.80;;;;;;5032029;28;20048;-78
2022/08/01 07:05:25;;;;;;;8.75;3.30;;;26.20;96.90;;;;;;5032072;28;20040;-78
2022/08/01 07:07:51;;;;;;;10.48;2.97;;;26.50;96.60;;;;;;5037235;28;20041;-78
2022/08/01 07:10:17;;;;;;;5.38;2.60;;;26.80;95.90;;;;;;5035674;28;20026;-79
2022/08/01 07:12:43;;;;;;;4.93;2.92;;;27.00;95.20;;;;;;5035031;28;20080;-77
2022/08/01 07:15:10;;;;;;;6.18;2.90;;;27.10;95.30;;;;;;5030462;28;20038;-78
2022/08/01 07:17:40;;;;;;;6.40;3.85;;;27.10;95.30;;;;;;5033176;28;20017;-77
2022/08/01 07:20:11;;;;;;;6.78;2.70;;;27.30;95.20;;;;;;5044612;28;20021;-77
2022/08/01 07:22:38;;;;;;;4.78;2.78;;;27.30;95.20;;;;;;5043271;28;20025;-77
2022/08/01 07:25:05;;;;;;;6.65;2.80;;;27.40;94.80;;;;;;5043985;28;20022;-77
2022/08/01 07:27:31;;;;;;;6.30;3.20;;;27.50;94.70;;;;;;5040329;28;20230;-76
2022/08/01 07:29:57;;;;;;;6.65;3.30;;;27.50;94.30;;;;;;5064526;28;20159;-80
2022/08/01 07:32:23;;;;;;;4.15;2.60;;;27.60;94.10;;;;;;5034940;28;20033;-77
2022/08/01 07:34:49;;;;;;;4.75;2.72;;;27.40;94.10;;;;;;5032346;28;20032;-78
2022/08/01 07:37:17;;;;;;;7.75;3.00;;;27.40;93.90;;;;;;5031758;28;20038;-79
2022/08/01 07:39:42;;;;;;;6.03;3.10;;;27.30;94.00;;;;;;5067583;28;20018;-80
2022/08/01 07:42:08;;;;;;;5.47;3.90;;;27.20;93.90;;;;;;5034005;28;20090;-78
2022/08/01 07:44:35;;;;;;;5.15;2.70;;;27.20;94.30;;;;;;5032574;28;20125;-77
2022/08/01 07:47:01;;;;;;;11.85;2.78;;;27.10;94.10;;;;;;5033881;28;20032;-79
2022/08/01 07:49:27;;;;;;;8.57;3.00;;;26.90;94.20;;;;;;5032626;28;20073;-78
2022/08/01 07:51:54;;;;;;;5.25;3.35;;;26.80;94.50;;;;;;5031494;28;20037;-79
2022/08/01 07:54:20;;;;;;;5.65;3.03;;;26.70;95.00;;;;;;5032493;28;20025;-78
2022/08/01 07:56:45;;;;;;;4.93;2.97;;;26.50;95.20;;;;;;5032639;28;20025;-79
2022/08/01 07:59:11;;;;;;;7.85;3.17;;;26.40;95.50;;;;;;5030342;28;20036;-77
2022/08/01 08:01:37;;;;;;;16.10;8.38;;;26.30;95.60;;;;;;5029561;28;20033;-78
2022/08/01 08:04:03;;;;;;;12.10;7.18;;;26.10;95.80;;;;;;5031131;28;20024;-80
2022/08/01 08:06:28;;;;;;;8.77;3.30;;;25.90;95.80;;;;;;5029310;28;20532;-79
2022/08/01 08:08:54;;;;;;;5.65;2.95;;;25.90;96.10;;;;;;5031295;28;20492;-76
2022/08/01 08:11:20;;;;;;;11.85;5.75;;;25.80;96.10;;;;;;5030233;28;20547;-77
2022/08/01 08:13:46;;;;;;;5.10;3.75;;;25.90;96.10;;;;;;5036259;28;20040;-79
2022/08/01 08:16:12;;;;;;;7.07;3.40;;;26.00;95.90;;;;;;5039599;28;20406;-78
2022/08/01 08:18:38;;;;;;;8.45;3.15;;;25.90;95.90;;;;;;5038259;28;20038;-78
2022/08/01 08:21:04;;;;;;;11.10;3.45;;;26.00;95.80;;;;;;5041698;28;20063;-78
2022/08/01 08:26:14;;;;;;;6.85;3.92;;;26.00;96.00;;;;;;5054306;28;20033;-79
2022/08/01 08:28:46;;;;;;;8.45;2.90;;;26.10;96.00;;;;;;5046855;28;20036;-77
2022/08/01 08:31:12;;;;;;;12.05;3.45;;;26.10;95.70;;;;;;5039971;28;20391;-78
2022/08/01 08:33:38;;;;;;;6.32;3.20;;;26.10;95.60;;;;;;5021842;28;20056;-79
2022/08/01 08:36:04;;;;;;;7.10;3.03;;;26.30;95.50;;;;;;5024331;28;20048;-77
2022/08/01 08:38:47;;;;;;;7.97;3.00;;;26.50;95.40;;;;;;5047513;28;20032;-78
2022/08/01 08:41:38;;;;;;;7.97;2.42;;;26.70;94.70;;;;;;5040968;28;20095;-78
2022/08/01 08:44:05;;;;;;;11.98;3.13;;;27.10;94.00;;;;;;5041287;28;20025;-78
2022/08/01 08:46:35;;;;;;;4.30;2.15;;;27.30;94.00;;;;;;5051269;28;20076;-77
2022/08/01 08:49:03;;;;;;;6.50;2.53;;;27.10;93.30;;;;;;5032042;28;20030;-78
2022/08/01 08:51:33;;;;;;;4.03;2.67;;;26.90;93.90;;;;;;5029236;28;20017;-78
2022/08/01 08:54:02;;;;;;;4.82;3.05;;;26.90;93.90;;;;;;5029458;28;20068;-79
2022/08/01 08:56:33;;;;;;;5.53;2.70;;;26.80;94.20;;;;;;5032575;28;20535;-79
2022/08/01 08:59:01;;;;;;;5.80;2.35;;;26.70;94.50;;;;;;5032418;28;20044;-79
2022/08/01 09:01:27;;;;;;;4.47;2.47;;;26.70;93.90;;;;;;5032438;28;20026;-77
2022/08/01 09:03:53;;;;;;;4.90;2.30;;;26.70;94.20;;;;;;5033178;28;20459;-79
2022/08/01 09:06:19;;;;;;;5.15;2.35;;;26.90;93.80;;;;;;5038865;28;20131;-80
2022/08/01 09:08:46;;;;;;;4.07;2.50;;;27.20;93.30;;;;;;5034192;28;20018;-79
2022/08/01 09:11:11;;;;;;;4.70;2.28;;;27.30;93.40;;;;;;5034008;28;20112;-78
2022/08/01 09:13:37;;;;;;;6.13;2.95;;;27.30;93.60;;;;;;5034064;28;20041;-79
2022/08/01 09:16:05;;;;;;;5.85;2.28;;;27.50;93.60;;;;;;5033044;28;20030;-78
2022/08/01 09:18:40;;;;;;;8.80;2.80;;;27.50;93.30;;;;;;5031261;28;20029;-77
2022/08/01 09:21:25;;;;;;;6.45;2.78;;;27.60;93.40;;;;;;5048073;28;20057;-79
2022/08/01 09:23:54;;;;;;;6.70;2.65;;;27.80;92.60;;;;;;5039726;28;20022;-78
2022/08/01 09:26:40;;;;;;;3.17;2.45;;;27.90;92.60;;;;;;5064886;28;20044;-82
2022/08/01 09:29:08;;;;;;;4.55;2.17;;;28.20;92.20;;;;;;5045324;28;20481;-84
2022/08/01 09:31:41;;;;;;;3.20;2.22;;;28.30;92.00;;;;;;5045510;28;20021;-82
2022/08/01 09:34:09;;;;;;;10.63;2.85;;;28.80;91.70;;;;;;5044088;28;20085;-85
2022/08/01 09:36:51;;;;;;;3.53;2.50;;;29.10;91.40;;;;;;5042554;28;20045;-83
2022/08/01 09:39:19;;;;;;;7.20;2.40;;;29.30;90.90;;;;;;5044791;28;20492;-84
2022/08/01 09:41:45;;;;;;;6.13;2.67;;;29.70;90.70;;;;;;5050522;28;20018;-84
2022/08/01 09:44:12;;;;;;;9.57;2.80;;;30.20;90.50;;;;;;5049978;28;20045;-84
2022/08/01 09:46:55;;;;;;;3.05;2.22;;;30.60;90.20;;;;;;5037897;28;20037;-85
2022/08/01 09:49:33;;;;;;;8.40;2.75;;;30.90;87.30;;;;;;5038345;28;20536;-85
2022/08/01 09:52:17;;;;;;;3.25;2.53;;;31.40;86.80;;;;;;5037948;28;20025;-85
2022/08/01 09:54:51;;;;;;;9.23;2.42;;;31.50;85.60;;;;;;5039738;28;20064;-84
2022/08/01 09:57:18;;;;;;;4.53;2.60;;;31.30;85.10;;;;;;5037290;28;20489;-84
2022/08/01 09:59:46;;;;;;;4.53;2.58;;;31.20;84.50;;;;;;5040816;28;20051;-86
2022/08/01 10:02:15;;;;;;;4.53;2.58;;;30.80;84.60;;;;;;5034845;28;20425;-84
2022/08/01 10:04:49;;;;;;;4.82;2.40;;;31.10;84.80;;;;;;5035294;28;20078;-85
2022/08/01 10:07:15;;;;;;;2.75;2.00;;;32.00;82.40;;;;;;5035793;28;20033;-84
2022/08/01 10:09:42;;;;;;;7.20;2.65;;;32.40;81.20;;;;;;5035546;28;20022;-86
2022/08/01 10:12:10;;;;;;;4.07;2.50;;;32.20;80.90;;;;;;5054228;28;20140;-83
2022/08/01 10:14:37;;;;;;;3.08;2.53;;;32.00;81.20;;;;;;5038847;28;20040;-83
2022/08/01 10:17:07;;;;;;;3.45;2.13;;;32.10;80.60;;;;;;5043842;28;20029;-85
2022/08/01 10:19:36;;;;;;;3.35;2.25;;;32.40;80.20;;;;;;5050085;28;20688;-84
2022/08/01 10:22:07;;;;;;;8.05;2.20;;;32.30;80.70;;;;;;5050604;28;20022;-87
2022/08/01 10:24:37;;;;;;;5.05;2.28;;;33.00;80.10;;;;;;5106297;23;20037;-88
2022/08/01 10:27:08;;;;;;;3.97;2.70;;;33.10;79.80;;;;;;5067664;28;20045;-88
2022/08/01 10:29:51;;;;;;;3.30;2.50;;;33.00;80.20;;;;;;5060623;28;20053;-86
2022/08/01 10:32:18;;;;;;;4.55;2.47;;;32.70;80.80;;;;;;5051309;28;20411;-88
2022/08/01 10:34:45;;;;;;;5.70;2.65;;;32.30;81.10;;;;;;5057341;28;20091;-87
2022/08/01 10:37:14;;;;;;;4.50;2.90;;;32.00;82.00;;;;;;5056758;28;20064;-85
2022/08/01 10:39:40;;;;;;;2.85;2.20;;;32.20;80.80;;;;;;5065956;28;20025;-87
2022/08/01 10:42:09;;;;;;;9.27;2.53;;;32.60;80.40;;;;;;5064839;28;20500;-88
2022/08/01 10:44:36;;;;;;;4.03;2.80;;;34.30;77.30;;;;;;5077236;28;20025;-88
2022/08/01 10:47:13;;;;;;;6.20;2.47;;;35.90;74.60;;;;;;5072359;28;20021;-87
2022/08/01 10:50:07;;;;;;;2.88;1.92;;;37.80;69.90;;;;;;5075267;28;20025;-89
2022/08/01 10:52:33;;;;;;;4.57;2.65;;;39.30;65.80;;;;;;5063574;28;20089;-88
2022/08/01 10:55:11;;;;;;;4.80;2.20;;;40.00;63.90;;;;;;5067600;28;20022;-88
2022/08/01 10:57:46;;;;;;;1.95;1.75;;;40.40;61.60;;;;;;5056009;28;20029;-88
2022/08/01 11:00:21;;;;;;;4.07;1.90;;;41.70;58.30;;;;;;5065422;28;20056;-87
2022/08/01 11:03:03;;;;;;;2.70;2.00;;;42.40;56.70;;;;;;5067682;28;20028;-87
2022/08/01 11:05:36;;;;;;;2.20;2.00;;;43.30;55.20;;;;;;5060110;28;20044;-87
2022/08/01 11:08:10;;;;;;;3.88;2.10;;;43.60;53.70;;;;;;5060959;28;20030;-88
2022/08/01 11:10:44;;;;;;;2.85;1.92;;;44.30;52.90;;;;;;5068095;28;20013;-87
2022/08/01 11:13:11;;;;;;;5.20;2.65;;;44.10;51.70;;;;;;5067208;28;20067;-88
2022/08/01 11:15:41;;;;;;;5.38;2.13;;;43.30;51.80;;;;;;5068353;28;20025;-87
2022/08/01 11:18:25;;;;;;;2.55;2.15;;;42.10;52.00;;;;;;5064348;28;20073;-87
2022/08/01 11:20:59;;;;;;;4.72;2.25;;;40.60;53.40;;;;;;5060609;28;20059;-87
2022/08/01 11:23:27;;;;;;;2.83;2.15;;;39.60;54.60;;;;;;5056911;28;20021;-89
2022/08/01 11:25:53;;;;;;;4.00;2.25;;;38.30;55.80;;;;;;5060589;28;20025;-88
2022/08/01 11:28:24;;;;;;;2.25;1.73;;;38.00;56.00;;;;;;5058808;28;20032;-87
2022/08/01 11:31:15;;;;;;;4.68;2.30;;;38.10;55.80;;;;;;5059040;28;20384;-88
2022/08/01 11:33:41;;;;;;;6.03;2.20;;;37.70;56.10;;;;;;5037029;28;20382;-87
2022/08/01 11:36:10;;;;;;;6.30;2.25;;;37.30;56.70;;;;;;5042508;28;20030;-88
2022/08/01 11:38:37;;;;;;;2.47;2.28;;;36.80;57.70;;;;;;5031768;28;20573;-88
2022/08/01 11:41:33;;;;;;;5.78;2.10;;;36.20;57.60;;;;;;5029346;28;20081;-90
2022/08/01 11:44:15;;;;;;;3.28;2.08;;;36.00;58.00;;;;;;5022444;28;20042;-89
2022/08/01 11:47:04;;;;;;;3.97;2.20;;;36.10;57.80;;;;;;5025895;28;20022;-88
2022/08/01 11:49:36;;;;;;;4.35;2.08;;;36.40;57.90;;;;;;5041727;28;20029;-89
2022/08/01 11:52:09;;;;;;;3.00;2.00;;;36.50;57.00;;;;;;5059499;28;20030;-88
2022/08/01 11:54:37;;;;;;;2.92;2.38;;;36.30;57.80;;;;;;5057503;28;20067;-86
2022/08/01 11:57:14;;;;;;;4.90;2.63;;;35.80;58.50;;;;;;5069826;28;20065;-88
2022/08/01 11:59:48;;;;;;;2.65;2.00;;;35.20;59.10;;;;;;5063887;28;20010;-88
2022/08/01 12:02:19;;;;;;;4.47;2.50;;;34.80;59.60;;;;;;5063004;28;20036;-89
2022/08/01 12:04:56;;;;;;;3.60;2.15;;;34.50;60.60;;;;;;5042782;28;20105;-86
2022/08/01 12:07:25;;;;;;;4.93;2.47;;;34.40;61.50;;;;;;5066538;28;20069;-88
2022/08/01 12:10:05;;;;;;;2.72;2.30;;;34.30;61.60;;;;;;5068191;28;20032;-85
2022/08/01 12:12:32;;;;;;;5.65;2.70;;;34.00;62.10;;;;;;5059996;28;20029;-88
2022/08/01 12:15:00;;;;;;;5.70;2.30;;;33.80;61.70;;;;;;5064884;28;20033;-87
2022/08/01 12:17:40;;;;;;;7.38;2.90;;;33.80;61.80;;;;;;5061738;28;20024;-87
2022/08/01 12:20:12;;;;;;;8.15;2.90;;;33.50;62.30;;;;;;5055991;28;20044;-88
2022/08/01 12:22:38;;;;;;;4.80;3.28;;;32.60;64.20;;;;;;5061788;28;20009;-88
2022/08/01 12:25:15;;;;;;;6.00;3.22;;;31.80;65.50;;;;;;5061414;28;20040;-88
2022/08/01 12:27:43;;;;;;;10.57;3.15;;;31.10;67.30;;;;;;5057825;28;20442;-89
2022/08/01 12:30:24;;;;;;;14.73;3.03;;;30.40;68.60;;;;;;5055422;28;20025;-88
2022/08/01 12:32:52;;;;;;;4.97;3.25;;;29.70;70.50;;;;;;5052065;28;20033;-89
2022/08/01 12:35:23;;;;;;;13.02;3.60;;;29.20;71.40;;;;;;5059906;28;20025;-87
2022/08/01 12:37:51;;;;;;;4.70;2.88;;;28.80;73.30;;;;;;5034232;28;20025;-88
2022/08/01 12:40:18;;;;;;;7.00;3.17;;;28.50;73.80;;;;;;5060651;28;20023;-89
2022/08/01 12:42:48;;;;;;;7.47;2.17;;;28.50;74.30;;;;;;5058027;28;20033;-89
2022/08/01 12:45:22;;;;;;;11.82;2.28;;;28.50;72.50;;;;;;5055298;28;20033;-90
2022/08/01 12:47:48;;;;;;;8.10;2.20;;;28.30;69.40;;;;;;5061777;28;20076;-88
2022/08/01 12:50:19;;;;;;;14.52;2.40;;;28.10;69.70;;;;;;5054378;28;20037;-88
2022/08/01 12:52:46;;;;;;;3.40;1.73;;;28.20;70.20;;;;;;5055228;28;20055;-87
2022/08/01 12:55:20;;;;;;;4.22;1.75;;;28.10;70.00;;;;;;5060244;28;20032;-87
2022/08/01 12:57:52;;;;;;;3.45;1.60;;;27.90;71.50;;;;;;5060336;28;20059;-88